Time;durP1;ratioP1;P1;durP2;ratioP2;P2;SDS_P1;SDS_P2;PMS_P1;PMS_P2;Temp;Humidity;BMP_temperature;BMP_pressure;BME280_temperature;BME280_humidity;BME280_pressure;Samples;Min_cycle;Max_cycle;Signal;HPM_P1;HPM_P2
2022/06/30 00:01:34;;;;;;;0.95;0.88;;;19.00;99.90;;;;;;4939910;29;20019;-94
2022/06/30 00:04:01;;;;;;;0.57;0.57;;;19.10;99.90;;;;;;4939641;29;20062;-94
2022/06/30 00:06:26;;;;;;;0.85;0.85;;;19.30;99.90;;;;;;4939713;29;20037;-94
2022/06/30 00:08:52;;;;;;;1.23;1.10;;;19.30;99.90;;;;;;4939943;29;20023;-95
2022/06/30 00:11:18;;;;;;;1.50;1.40;;;19.30;99.90;;;;;;4944132;29;20011;-93
2022/06/30 00:13:44;;;;;;;2.42;1.67;;;19.20;99.90;;;;;;4956946;28;20039;-95
2022/06/30 00:16:10;;;;;;;1.98;1.75;;;19.10;99.90;;;;;;4940849;29;20059;-95
2022/06/30 00:18:37;;;;;;;1.75;1.63;;;19.10;99.90;;;;;;4939432;29;20035;-95
2022/06/30 00:21:04;;;;;;;1.55;1.45;;;19.20;99.90;;;;;;4939686;29;20020;-96
2022/06/30 00:23:30;;;;;;;1.70;1.52;;;19.30;99.90;;;;;;4938943;29;20027;-96
2022/06/30 00:25:56;;;;;;;1.25;1.23;;;19.40;99.90;;;;;;4940182;29;20384;-96
2022/06/30 00:28:25;;;;;;;1.45;1.10;;;19.30;99.90;;;;;;4942617;29;20031;-96
2022/06/30 00:30:54;;;;;;;2.30;1.08;;;19.30;99.90;;;;;;4955697;29;20039;-96
2022/06/30 00:33:25;;;;;;;0.55;0.55;;;19.40;99.90;;;;;;4957722;28;20036;-96
2022/06/30 00:36:03;;;;;;;0.20;0.20;;;19.30;99.90;;;;;;4954270;29;20031;-96
2022/06/30 00:38:28;;;;;;;0.63;0.63;;;19.30;99.90;;;;;;4952180;29;20497;-96
2022/06/30 00:40:54;;;;;;;1.90;1.50;;;19.40;99.90;;;;;;4952198;29;20027;-96
2022/06/30 00:43:20;;;;;;;1.05;1.05;;;19.40;99.90;;;;;;4950112;29;20035;-96
2022/06/30 00:45:47;;;;;;;0.88;0.88;;;19.40;99.90;;;;;;4950715;29;20049;-96
2022/06/30 00:48:20;;;;;;;0.57;0.50;;;19.40;99.90;;;;;;4948831;29;20067;-96
2022/06/30 00:50:46;;;;;;;1.98;0.75;;;19.40;99.90;;;;;;4944820;29;20035;-96
2022/06/30 00:53:14;;;;;;;0.30;0.30;;;19.50;99.90;;;;;;4944367;29;20043;-96
2022/06/30 00:55:43;;;;;;;0.73;0.73;;;19.40;99.90;;;;;;4946544;29;20036;-94
2022/06/30 00:58:15;;;;;;;0.13;0.13;;;19.40;99.90;;;;;;4944389;29;20487;-96
2022/06/30 01:00:48;;;;;;;0.95;0.60;;;19.40;99.90;;;;;;4943392;29;20091;-96
2022/06/30 01:03:15;;;;;;;0.60;0.20;;;19.40;99.90;;;;;;4944103;29;20034;-95
2022/06/30 01:05:42;;;;;;;0.47;0.47;;;19.40;99.90;;;;;;4954072;29;20134;-96
2022/06/30 01:08:09;;;;;;;1.15;1.08;;;19.40;99.90;;;;;;4937779;29;20387;-95
2022/06/30 01:13:21;;;;;;;1.70;1.60;;;19.30;99.90;;;;;;4937821;29;20034;-95
2022/06/30 01:15:46;;;;;;;0.57;0.52;;;19.30;99.90;;;;;;4937404;29;20473;-96
2022/06/30 01:18:12;;;;;;;5.68;1.95;;;19.20;99.90;;;;;;4936943;29;20391;-95
2022/06/30 01:20:38;;;;;;;0.45;0.45;;;19.00;99.90;;;;;;4936510;29;20391;-95
2022/06/30 01:23:05;;;;;;;0.45;0.45;;;19.00;99.90;;;;;;4936020;29;20039;-94
2022/06/30 01:25:32;;;;;;;1.15;1.05;;;18.90;99.90;;;;;;4935911;29;20027;-95
2022/06/30 01:27:57;;;;;;;3.20;1.17;;;18.80;99.90;;;;;;4935936;29;20502;-94
2022/06/30 01:30:23;;;;;;;3.70;0.52;;;18.80;99.90;;;;;;4935711;29;20032;-96
2022/06/30 01:32:49;;;;;;;0.65;0.65;;;18.80;99.90;;;;;;4935665;29;20027;-95
2022/06/30 01:35:16;;;;;;;0.20;0.20;;;18.80;99.90;;;;;;4937323;29;20023;-95
2022/06/30 01:37:56;;;;;;;1.02;0.93;;;18.80;99.90;;;;;;4939355;29;20050;-96
2022/06/30 01:40:24;;;;;;;0.43;0.43;;;18.80;99.90;;;;;;4939208;29;20035;-94
2022/06/30 01:42:50;;;;;;;0.85;0.80;;;18.80;99.90;;;;;;4939404;29;20028;-95
2022/06/30 01:45:17;;;;;;;0.45;0.43;;;18.80;99.90;;;;;;4939018;29;20482;-93
2022/06/30 01:47:42;;;;;;;0.30;0.30;;;18.70;99.90;;;;;;4938913;29;20043;-93
2022/06/30 01:50:11;;;;;;;0.20;0.20;;;18.70;99.90;;;;;;4938899;29;20031;-93
2022/06/30 01:52:37;;;;;;;0.52;0.52;;;18.80;99.90;;;;;;4939099;29;20550;-93
2022/06/30 01:55:03;;;;;;;0.98;0.75;;;18.80;99.90;;;;;;4938848;29;20063;-93
2022/06/30 01:57:29;;;;;;;0.20;0.20;;;18.80;99.90;;;;;;4954644;28;20047;-93
2022/06/30 01:59:55;;;;;;;0.13;0.13;;;18.80;99.90;;;;;;4941272;29;20038;-94
2022/06/30 02:02:21;;;;;;;0.43;0.40;;;18.80;99.90;;;;;;4938972;29;20063;-93
2022/06/30 02:04:46;;;;;;;1.10;1.10;;;18.80;99.90;;;;;;4938929;29;20023;-93
2022/06/30 02:07:15;;;;;;;0.00;0.00;;;18.90;99.90;;;;;;4938682;29;20047;-95
2022/06/30 02:09:42;;;;;;;0.50;0.50;;;18.90;99.90;;;;;;4938781;29;20042;-93
2022/06/30 02:14:53;;;;;;;0.03;0.03;;;19.00;99.90;;;;;;4940137;29;20042;-94
2022/06/30 02:17:18;;;;;;;0.00;0.00;;;19.00;99.90;;;;;;4938691;29;20474;-93
2022/06/30 02:19:44;;;;;;;0.75;0.47;;;19.00;99.90;;;;;;4938510;29;20072;-93
2022/06/30 02:22:10;;;;;;;0.08;0.08;;;19.00;99.90;;;;;;4938478;29;20042;-93
2022/06/30 02:24:35;;;;;;;0.88;0.88;;;19.10;99.90;;;;;;4938454;29;20494;-93
2022/06/30 02:27:01;;;;;;;0.20;0.20;;;19.10;99.90;;;;;;4938272;29;20397;-93
2022/06/30 02:29:27;;;;;;;0.28;0.28;;;19.20;99.90;;;;;;4938252;29;20054;-94
2022/06/30 02:31:53;;;;;;;1.55;0.57;;;19.20;99.90;;;;;;4938109;29;20020;-93
2022/06/30 02:34:19;;;;;;;0.75;0.75;;;19.30;99.90;;;;;;4938746;29;20431;-94
2022/06/30 02:36:44;;;;;;;0.20;0.20;;;19.20;99.90;;;;;;4938277;29;20032;-94
2022/06/30 02:39:10;;;;;;;0.20;0.15;;;19.30;99.90;;;;;;4938127;29;20086;-93
2022/06/30 02:41:36;;;;;;;0.52;0.52;;;19.40;99.90;;;;;;4938217;29;20023;-93
2022/06/30 02:44:02;;;;;;;0.52;0.52;;;19.50;99.90;;;;;;4938236;29;20032;-94
2022/06/30 02:46:28;;;;;;;0.10;0.10;;;19.50;99.90;;;;;;4937573;29;20043;-93
2022/06/30 02:48:54;;;;;;;0.75;0.52;;;19.60;99.90;;;;;;4937930;29;20020;-94
2022/06/30 02:51:19;;;;;;;0.50;0.50;;;19.60;99.90;;;;;;4937981;29;20094;-94
2022/06/30 02:53:45;;;;;;;1.30;0.40;;;19.70;99.90;;;;;;4937953;29;20107;-93
2022/06/30 02:56:12;;;;;;;0.00;0.00;;;19.80;99.90;;;;;;4937693;29;20031;-93
2022/06/30 02:58:38;;;;;;;1.02;0.77;;;19.90;99.90;;;;;;4937885;29;20467;-94
2022/06/30 03:01:04;;;;;;;0.32;0.32;;;19.90;99.90;;;;;;4937668;29;20032;-94
2022/06/30 03:03:30;;;;;;;0.22;0.20;;;20.00;99.90;;;;;;4938716;29;20547;-94
2022/06/30 03:05:56;;;;;;;0.57;0.57;;;20.10;99.90;;;;;;4937840;29;20538;-94
2022/06/30 03:08:21;;;;;;;0.50;0.50;;;20.10;99.90;;;;;;4937635;29;20439;-94
2022/06/30 03:10:47;;;;;;;0.55;0.55;;;20.00;99.90;;;;;;4937496;29;20075;-94
2022/06/30 03:13:12;;;;;;;1.20;0.60;;;20.10;99.90;;;;;;4937418;29;20030;-94
2022/06/30 03:15:38;;;;;;;0.95;0.55;;;19.90;99.90;;;;;;4937535;29;20030;-93
2022/06/30 03:18:04;;;;;;;0.73;0.73;;;20.00;99.90;;;;;;4937346;29;20019;-93
2022/06/30 03:20:30;;;;;;;0.20;0.20;;;20.00;99.90;;;;;;4937546;29;20062;-94
2022/06/30 03:22:56;;;;;;;0.60;0.60;;;19.90;99.90;;;;;;4937731;29;20458;-94
2022/06/30 03:25:21;;;;;;;1.55;1.45;;;19.90;99.90;;;;;;4937271;29;20167;-93
2022/06/30 03:27:47;;;;;;;0.45;0.45;;;19.90;99.90;;;;;;4937204;29;20041;-94
2022/06/30 03:30:13;;;;;;;0.30;0.22;;;19.80;99.90;;;;;;4937192;29;20166;-93
2022/06/30 03:32:38;;;;;;;0.52;0.47;;;19.90;99.90;;;;;;4937299;29;20098;-93
2022/06/30 03:35:05;;;;;;;0.43;0.43;;;20.00;99.90;;;;;;4937108;29;20024;-93
2022/06/30 03:37:31;;;;;;;0.80;0.80;;;20.00;99.90;;;;;;4936939;29;20030;-94
2022/06/30 03:39:58;;;;;;;0.35;0.35;;;20.00;99.90;;;;;;4937261;29;20118;-93
2022/06/30 03:42:24;;;;;;;0.68;0.68;;;20.10;99.90;;;;;;4958257;28;20016;-93
2022/06/30 03:44:50;;;;;;;0.15;0.15;;;20.10;99.90;;;;;;4937244;29;20447;-94
2022/06/30 03:47:16;;;;;;;2.55;0.55;;;20.10;99.90;;;;;;4936823;29;20051;-93
2022/06/30 03:49:42;;;;;;;0.32;0.32;;;20.10;99.90;;;;;;4936590;29;20036;-93
2022/06/30 03:52:08;;;;;;;0.35;0.35;;;20.10;99.90;;;;;;4936804;29;20035;-93
2022/06/30 03:54:34;;;;;;;1.02;0.68;;;20.10;99.90;;;;;;4936772;29;20027;-94
2022/06/30 03:57:00;;;;;;;0.60;0.60;;;20.10;99.90;;;;;;4936200;29;20032;-93
2022/06/30 03:59:25;;;;;;;0.80;0.68;;;20.10;99.90;;;;;;4936667;29;20038;-94
2022/06/30 04:01:51;;;;;;;0.13;0.13;;;20.10;99.90;;;;;;4936581;29;20126;-93
2022/06/30 04:04:17;;;;;;;0.43;0.43;;;20.20;99.90;;;;;;4936647;29;20032;-93
2022/06/30 04:06:42;;;;;;;0.47;0.43;;;20.40;99.90;;;;;;4936744;29;20062;-94
2022/06/30 04:09:08;;;;;;;0.32;0.32;;;20.40;99.90;;;;;;4936529;29;20046;-94
2022/06/30 04:11:34;;;;;;;0.43;0.43;;;20.30;99.90;;;;;;4936400;29;20063;-95
2022/06/30 04:14:00;;;;;;;1.88;1.48;;;20.40;99.90;;;;;;4936474;29;20497;-95
2022/06/30 04:16:26;;;;;;;0.77;0.77;;;20.30;99.90;;;;;;4936402;29;20019;-94
2022/06/30 04:18:54;;;;;;;0.75;0.60;;;20.20;99.90;;;;;;4936226;29;20533;-93
2022/06/30 04:21:20;;;;;;;0.20;0.20;;;20.20;99.90;;;;;;4936352;29;20035;-94
2022/06/30 04:23:46;;;;;;;1.08;0.85;;;20.20;99.90;;;;;;4936276;29;20031;-94
2022/06/30 04:26:12;;;;;;;0.45;0.45;;;20.20;99.90;;;;;;4936344;29;20114;-93
2022/06/30 04:28:38;;;;;;;0.65;0.65;;;20.30;99.90;;;;;;4936370;29;20023;-94
2022/06/30 04:33:48;;;;;;;1.55;1.45;;;20.30;99.90;;;;;;4937983;29;20542;-94
2022/06/30 04:36:14;;;;;;;1.10;1.10;;;20.30;99.90;;;;;;4936147;29;20020;-94
2022/06/30 04:38:39;;;;;;;0.70;0.52;;;20.30;99.90;;;;;;4936395;29;20024;-93
2022/06/30 04:41:23;;;;;;;0.95;0.95;;;20.30;99.90;;;;;;4936816;29;20114;-93
2022/06/30 04:43:49;;;;;;;0.52;0.52;;;20.40;99.90;;;;;;4936277;29;20032;-94
2022/06/30 04:46:15;;;;;;;0.38;0.38;;;20.50;99.90;;;;;;4937971;29;20031;-94
2022/06/30 04:48:41;;;;;;;0.38;0.30;;;20.70;99.90;;;;;;4939324;29;20034;-94
2022/06/30 04:51:08;;;;;;;0.20;0.20;;;20.60;99.90;;;;;;4939228;29;20028;-94
2022/06/30 04:53:33;;;;;;;0.40;0.40;;;20.60;99.90;;;;;;4939227;29;20027;-95
2022/06/30 04:55:59;;;;;;;0.77;0.75;;;20.50;99.90;;;;;;4939119;29;20019;-94
2022/06/30 04:58:25;;;;;;;1.20;1.20;;;20.60;99.90;;;;;;4939644;29;20028;-95
2022/06/30 05:00:51;;;;;;;1.00;1.00;;;20.70;99.90;;;;;;4939006;29;20027;-94
2022/06/30 05:03:17;;;;;;;0.47;0.47;;;20.50;99.90;;;;;;4939104;29;20030;-94
2022/06/30 05:05:42;;;;;;;0.50;0.50;;;20.60;99.90;;;;;;4939111;29;20027;-95
2022/06/30 05:08:08;;;;;;;0.45;0.45;;;20.70;99.90;;;;;;4939293;28;20062;-95
2022/06/30 05:10:34;;;;;;;0.52;0.52;;;20.80;99.90;;;;;;4942812;29;20114;-95
2022/06/30 05:13:00;;;;;;;0.30;0.30;;;20.80;99.90;;;;;;4942849;29;20035;-96
2022/06/30 05:15:25;;;;;;;1.35;1.25;;;20.90;99.90;;;;;;4942791;29;20023;-96
2022/06/30 05:17:51;;;;;;;0.68;0.68;;;20.90;99.90;;;;;;4942998;29;20218;-93
2022/06/30 05:20:16;;;;;;;0.68;0.68;;;20.90;99.90;;;;;;4942821;29;20030;-94
2022/06/30 05:22:42;;;;;;;1.27;1.17;;;20.90;99.90;;;;;;4943148;29;20372;-94
2022/06/30 05:27:53;;;;;;;1.02;1.02;;;20.90;99.90;;;;;;4964736;28;20066;-94
2022/06/30 05:30:18;;;;;;;0.93;0.93;;;20.90;99.90;;;;;;4942469;29;20079;-93
2022/06/30 05:32:45;;;;;;;1.55;1.45;;;20.80;99.90;;;;;;4942369;29;20529;-94
2022/06/30 05:35:11;;;;;;;1.15;1.15;;;20.70;99.90;;;;;;4942319;29;20040;-94
2022/06/30 05:37:37;;;;;;;0.30;0.30;;;20.60;99.90;;;;;;4942260;29;20103;-94
2022/06/30 05:40:03;;;;;;;0.90;0.90;;;20.50;99.90;;;;;;4942485;29;20038;-92
2022/06/30 05:42:29;;;;;;;0.65;0.65;;;20.60;99.90;;;;;;4958659;29;20031;-91
2022/06/30 05:44:55;;;;;;;1.02;1.02;;;20.70;99.90;;;;;;4942005;29;20385;-93
2022/06/30 05:47:21;;;;;;;1.33;1.15;;;20.80;99.90;;;;;;4942176;29;20075;-90
2022/06/30 05:49:46;;;;;;;0.80;0.80;;;20.90;99.90;;;;;;4942467;29;20113;-93
2022/06/30 05:52:12;;;;;;;0.75;0.75;;;20.80;99.90;;;;;;4942188;29;20500;-92
2022/06/30 05:54:38;;;;;;;5.93;1.58;;;20.80;99.90;;;;;;4942126;29;20034;-90
2022/06/30 05:57:04;;;;;;;0.75;0.75;;;20.80;99.90;;;;;;4942161;29;20023;-91
2022/06/30 05:59:32;;;;;;;1.13;1.13;;;20.90;99.90;;;;;;4942072;29;20023;-93
2022/06/30 06:02:00;;;;;;;0.10;0.10;;;20.90;99.90;;;;;;4942091;29;20027;-91
2022/06/30 06:04:26;;;;;;;1.42;1.33;;;21.00;99.90;;;;;;4941857;29;20110;-92
2022/06/30 06:06:52;;;;;;;1.45;1.35;;;21.10;99.90;;;;;;4942025;29;20023;-93
2022/06/30 06:09:18;;;;;;;0.68;0.68;;;21.30;99.90;;;;;;4941691;29;20042;-92
2022/06/30 06:11:44;;;;;;;1.50;1.17;;;21.50;99.90;;;;;;4941851;29;20034;-93
2022/06/30 06:14:10;;;;;;;1.27;1.27;;;21.60;99.90;;;;;;4941812;29;20031;-92
2022/06/30 06:16:36;;;;;;;0.40;0.40;;;21.60;99.90;;;;;;4941685;29;20033;-91
2022/06/30 06:19:02;;;;;;;1.67;1.58;;;21.50;99.90;;;;;;4941815;29;20023;-94
2022/06/30 06:21:27;;;;;;;1.20;0.95;;;21.60;99.90;;;;;;4941743;29;20024;-92
2022/06/30 06:23:54;;;;;;;0.90;0.90;;;21.60;99.90;;;;;;4941657;29;20038;-94
2022/06/30 06:26:20;;;;;;;1.15;1.08;;;21.70;99.90;;;;;;4941545;29;20031;-95
2022/06/30 06:31:30;;;;;;;1.45;1.27;;;21.50;99.90;;;;;;4958737;29;20034;-96
2022/06/30 06:33:56;;;;;;;1.35;1.30;;;21.50;99.90;;;;;;4941670;29;20022;-93
2022/06/30 06:36:22;;;;;;;1.55;1.13;;;21.40;99.90;;;;;;4941542;29;20055;-93
2022/06/30 06:38:48;;;;;;;1.38;1.27;;;21.40;99.90;;;;;;4941903;29;20090;-95
2022/06/30 06:41:14;;;;;;;0.28;0.28;;;21.30;99.90;;;;;;4941400;29;20114;-94
2022/06/30 06:43:40;;;;;;;1.98;1.27;;;21.40;99.90;;;;;;4941667;29;20035;-96
2022/06/30 06:46:06;;;;;;;0.80;0.80;;;21.50;99.90;;;;;;4941012;29;20367;-94
2022/06/30 06:48:32;;;;;;;0.88;0.88;;;21.60;99.90;;;;;;4941298;29;20039;-93
2022/06/30 06:50:57;;;;;;;1.67;0.50;;;21.70;99.90;;;;;;4941168;29;20114;-94
2022/06/30 06:53:23;;;;;;;1.15;1.15;;;21.90;99.90;;;;;;4941171;29;20114;-94
2022/06/30 06:55:49;;;;;;;1.85;0.85;;;21.90;99.90;;;;;;4941103;29;20490;-92
2022/06/30 06:58:14;;;;;;;0.40;0.40;;;22.10;99.90;;;;;;4941114;29;20024;-95
2022/06/30 07:00:40;;;;;;;0.60;0.60;;;22.10;99.90;;;;;;4941165;29;20031;-94
2022/06/30 07:03:06;;;;;;;1.35;1.25;;;22.10;99.90;;;;;;4941102;29;20027;-95
2022/06/30 07:05:32;;;;;;;2.15;1.75;;;22.30;99.90;;;;;;4944499;28;20493;-96
2022/06/30 07:07:59;;;;;;;1.92;1.48;;;22.30;99.90;;;;;;4959116;28;20512;-96
2022/06/30 07:10:25;;;;;;;2.22;1.85;;;22.40;99.90;;;;;;4942198;29;20031;-96
2022/06/30 07:12:52;;;;;;;1.67;1.58;;;22.40;99.90;;;;;;4940739;29;20027;-96
2022/06/30 07:15:18;;;;;;;1.20;1.20;;;22.60;99.90;;;;;;4940697;29;20035;-94
2022/06/30 07:17:44;;;;;;;1.45;1.27;;;22.80;99.90;;;;;;4940850;29;20024;-95
2022/06/30 07:20:10;;;;;;;1.98;1.88;;;22.90;99.90;;;;;;4941153;29;20038;-94
2022/06/30 07:22:36;;;;;;;1.45;1.33;;;22.70;99.90;;;;;;4940844;29;20027;-95
2022/06/30 07:25:03;;;;;;;1.42;1.38;;;22.60;99.90;;;;;;4940683;29;20105;-94
2022/06/30 07:27:28;;;;;;;4.03;2.95;;;22.70;99.90;;;;;;4940410;29;20102;-96
2022/06/30 07:29:55;;;;;;;0.60;0.60;;;22.60;99.90;;;;;;4940293;29;20034;-95
2022/06/30 07:32:21;;;;;;;1.48;1.42;;;22.70;99.90;;;;;;4940419;29;20031;-96
2022/06/30 07:34:47;;;;;;;1.63;1.52;;;22.80;99.90;;;;;;4940376;29;20024;-93
2022/06/30 07:37:12;;;;;;;1.15;0.93;;;23.00;99.90;;;;;;4940380;29;20470;-93
2022/06/30 07:39:38;;;;;;;1.38;1.25;;;23.10;99.90;;;;;;4940188;29;20058;-94
2022/06/30 07:42:04;;;;;;;0.85;0.85;;;23.20;99.90;;;;;;4940125;29;20075;-95
2022/06/30 07:44:30;;;;;;;1.65;1.55;;;23.40;99.90;;;;;;4940248;29;20037;-92
2022/06/30 07:46:55;;;;;;;1.55;1.45;;;23.40;99.90;;;;;;4940238;29;20142;-93
2022/06/30 07:49:21;;;;;;;1.50;1.40;;;23.50;99.90;;;;;;4940219;29;20027;-95
2022/06/30 07:51:48;;;;;;;0.55;0.55;;;23.40;99.90;;;;;;4940021;29;20386;-94
2022/06/30 07:54:14;;;;;;;0.98;0.98;;;23.30;99.90;;;;;;4939960;29;20367;-93
2022/06/30 07:56:40;;;;;;;1.30;1.02;;;23.30;99.90;;;;;;4939980;29;20039;-95
2022/06/30 07:59:05;;;;;;;1.35;1.35;;;23.40;99.90;;;;;;4939953;29;20139;-93
2022/06/30 08:01:31;;;;;;;1.00;1.00;;;23.60;99.90;;;;;;4940037;29;20031;-94
2022/06/30 08:03:57;;;;;;;1.05;1.05;;;23.80;99.90;;;;;;4939990;29;20028;-96
2022/06/30 08:06:24;;;;;;;1.45;1.35;;;23.90;99.90;;;;;;4940000;29;20126;-95
2022/06/30 08:08:52;;;;;;;0.88;0.88;;;23.90;99.90;;;;;;4939970;29;20214;-95
2022/06/30 08:11:18;;;;;;;1.38;1.30;;;23.80;99.90;;;;;;4939700;29;20027;-94
2022/06/30 08:13:44;;;;;;;2.97;1.77;;;23.90;99.90;;;;;;4939762;29;20082;-95
2022/06/30 08:16:11;;;;;;;2.25;1.20;;;24.00;99.90;;;;;;4939654;29;20031;-91
2022/06/30 08:18:37;;;;;;;1.08;1.02;;;23.80;99.90;;;;;;4939671;29;20023;-92
2022/06/30 08:21:03;;;;;;;1.33;1.17;;;24.00;99.90;;;;;;4939784;29;20122;-93
2022/06/30 08:23:29;;;;;;;1.75;0.85;;;24.10;99.90;;;;;;4939518;29;20035;-93
2022/06/30 08:25:55;;;;;;;1.20;1.10;;;24.50;99.90;;;;;;4939650;29;20078;-93
2022/06/30 08:28:21;;;;;;;1.40;1.20;;;24.40;99.90;;;;;;4939731;29;20031;-95
2022/06/30 08:30:48;;;;;;;1.38;1.20;;;24.40;99.90;;;;;;4939374;29;20028;-93
2022/06/30 08:33:14;;;;;;;0.82;0.82;;;24.30;99.90;;;;;;4939439;29;20077;-94
2022/06/30 08:35:40;;;;;;;2.20;1.67;;;24.40;99.90;;;;;;4939122;29;20055;-93
2022/06/30 08:38:06;;;;;;;0.82;0.82;;;24.40;99.90;;;;;;4939299;29;20023;-92
2022/06/30 08:43:18;;;;;;;0.95;0.95;;;24.30;99.90;;;;;;4956351;29;20050;-94
2022/06/30 08:45:45;;;;;;;0.73;0.73;;;24.40;99.90;;;;;;4939392;29;20027;-92
2022/06/30 08:48:12;;;;;;;1.25;1.15;;;24.40;99.90;;;;;;4949572;28;20035;-93
2022/06/30 08:50:42;;;;;;;0.50;0.50;;;24.40;99.90;;;;;;4947987;29;20031;-92
2022/06/30 08:53:09;;;;;;;3.05;1.70;;;24.30;99.90;;;;;;4939177;29;20068;-94
2022/06/30 08:55:36;;;;;;;1.45;1.02;;;24.40;99.90;;;;;;4939093;29;20086;-93
2022/06/30 08:58:06;;;;;;;2.17;1.42;;;24.50;99.90;;;;;;4939108;29;20034;-91
2022/06/30 09:00:33;;;;;;;1.10;1.02;;;24.60;99.90;;;;;;4955718;29;20031;-91
2022/06/30 09:02:59;;;;;;;2.30;1.98;;;24.60;99.90;;;;;;4939200;29;20447;-91
2022/06/30 09:05:24;;;;;;;2.10;1.77;;;24.70;99.90;;;;;;4938924;29;20112;-91
2022/06/30 09:07:50;;;;;;;0.90;0.88;;;24.80;99.90;;;;;;4939008;29;20039;-92
2022/06/30 09:10:16;;;;;;;1.92;1.83;;;25.00;99.90;;;;;;4939104;29;20027;-92
2022/06/30 09:13:00;;;;;;;0.60;0.60;;;24.90;99.90;;;;;;4939075;29;20058;-92
2022/06/30 09:15:29;;;;;;;1.73;1.63;;;25.00;99.90;;;;;;4938802;29;20110;-92
2022/06/30 09:17:55;;;;;;;0.70;0.70;;;25.10;99.90;;;;;;4938793;29;20027;-93
2022/06/30 09:20:36;;;;;;;1.40;1.30;;;25.00;99.90;;;;;;4955891;29;20061;-93
2022/06/30 09:23:19;;;;;;;1.40;1.30;;;25.20;99.90;;;;;;4938986;29;20052;-93
2022/06/30 09:25:49;;;;;;;3.85;0.70;;;25.20;99.90;;;;;;4939021;29;20031;-91
2022/06/30 09:28:14;;;;;;;1.50;1.25;;;25.10;99.90;;;;;;4938979;29;20035;-92
2022/06/30 09:30:40;;;;;;;1.27;1.25;;;25.10;99.90;;;;;;4939083;29;20042;-92
2022/06/30 09:33:08;;;;;;;1.45;1.35;;;25.10;99.90;;;;;;4955935;29;20027;-91
2022/06/30 09:35:34;;;;;;;0.52;0.52;;;25.00;99.90;;;;;;4956658;29;20023;-92
2022/06/30 09:37:59;;;;;;;2.05;1.10;;;25.00;99.90;;;;;;4938772;29;20536;-91
2022/06/30 09:40:35;;;;;;;0.80;0.80;;;25.00;99.90;;;;;;4938552;29;20059;-92
2022/06/30 09:43:03;;;;;;;0.60;0.60;;;25.00;99.90;;;;;;4938701;29;20067;-91
2022/06/30 09:45:38;;;;;;;1.00;1.00;;;25.20;99.90;;;;;;4938729;29;20030;-90
2022/06/30 09:48:07;;;;;;;1.58;1.48;;;25.30;99.90;;;;;;4955582;29;20058;-91
2022/06/30 09:50:33;;;;;;;1.30;1.30;;;25.20;99.90;;;;;;4938349;29;20042;-91
2022/06/30 09:53:07;;;;;;;0.93;0.90;;;25.30;99.90;;;;;;4938676;29;20028;-91
2022/06/30 09:55:37;;;;;;;0.90;0.90;;;25.30;99.90;;;;;;4956133;28;20034;-92
2022/06/30 09:58:03;;;;;;;1.50;1.40;;;25.40;99.90;;;;;;4942060;29;20019;-93
2022/06/30 10:00:29;;;;;;;1.02;0.95;;;25.40;99.90;;;;;;4942087;29;20142;-93
2022/06/30 10:03:04;;;;;;;1.45;1.27;;;25.50;99.90;;;;;;4942183;29;20027;-94
2022/06/30 10:05:30;;;;;;;0.93;0.93;;;25.50;99.90;;;;;;4958866;29;20058;-92
2022/06/30 10:07:57;;;;;;;1.52;1.52;;;25.50;99.90;;;;;;4941655;29;20031;-92
2022/06/30 10:10:24;;;;;;;0.70;0.70;;;25.60;99.90;;;;;;4958719;29;20027;-92
2022/06/30 10:12:50;;;;;;;3.60;1.10;;;25.50;99.90;;;;;;4941908;29;20063;-95
2022/06/30 10:15:17;;;;;;;1.45;1.35;;;25.60;99.90;;;;;;4941924;29;20031;-91
2022/06/30 10:17:51;;;;;;;1.50;1.17;;;25.60;99.90;;;;;;4941753;29;20470;-91
2022/06/30 10:20:17;;;;;;;1.50;1.40;;;25.70;99.90;;;;;;4941851;29;20073;-91
2022/06/30 10:22:43;;;;;;;0.95;0.95;;;25.70;99.90;;;;;;4958518;29;20035;-92
2022/06/30 10:25:09;;;;;;;1.08;1.05;;;25.70;99.90;;;;;;4958634;29;20033;-92
2022/06/30 10:27:35;;;;;;;1.52;1.42;;;25.80;99.90;;;;;;4941465;29;20067;-90
2022/06/30 10:30:06;;;;;;;1.00;0.82;;;25.90;99.70;;;;;;4947057;29;20034;-92
2022/06/30 10:32:57;;;;;;;0.82;0.82;;;25.80;99.80;;;;;;4952603;29;20035;-91
2022/06/30 10:35:44;;;;;;;0.52;0.52;;;25.80;99.90;;;;;;4941191;29;20023;-91
2022/06/30 10:38:49;;;;;;;2.38;1.27;;;25.80;99.50;;;;;;4941368;29;20034;-90
2022/06/30 10:41:17;;;;;;;0.55;0.50;;;25.70;99.00;;;;;;4902969;29;20035;-91
2022/06/30 10:44:05;;;;;;;0.93;0.93;;;25.80;98.90;;;;;;4942064;29;20467;-92
2022/06/30 10:46:49;;;;;;;0.82;0.82;;;26.00;98.70;;;;;;4942130;29;20545;-91
2022/06/30 10:49:14;;;;;;;0.55;0.55;;;26.10;99.70;;;;;;4941130;29;20059;-90
2022/06/30 10:51:41;;;;;;;1.27;1.15;;;26.30;99.40;;;;;;4941001;29;20093;-92
2022/06/30 10:54:08;;;;;;;0.43;0.43;;;26.20;98.20;;;;;;4940902;29;20467;-92
2022/06/30 10:56:49;;;;;;;0.95;0.93;;;26.30;98.60;;;;;;4941058;29;20038;-90
2022/06/30 10:59:16;;;;;;;1.50;0.77;;;26.30;98.00;;;;;;4940804;29;20020;-91
2022/06/30 11:02:06;;;;;;;1.17;1.13;;;26.40;99.30;;;;;;4941086;29;20027;-92
2022/06/30 11:04:33;;;;;;;0.32;0.30;;;26.50;99.20;;;;;;4940899;29;20035;-91
2022/06/30 11:07:23;;;;;;;1.38;1.27;;;26.60;98.50;;;;;;4940525;29;20075;-92
2022/06/30 11:09:52;;;;;;;0.65;0.65;;;26.80;97.80;;;;;;4931250;29;20047;-92
2022/06/30 11:12:20;;;;;;;0.73;0.73;;;26.90;97.60;;;;;;4940574;29;20027;-91
2022/06/30 11:14:51;;;;;;;1.75;1.65;;;26.80;96.90;;;;;;4940901;29;20391;-91
2022/06/30 11:17:23;;;;;;;1.10;1.05;;;26.90;95.60;;;;;;4940622;29;20023;-91
2022/06/30 11:20:02;;;;;;;0.95;0.95;;;26.90;95.80;;;;;;4940684;29;20031;-91
2022/06/30 11:22:29;;;;;;;0.68;0.68;;;27.00;95.60;;;;;;4940588;29;20077;-93
2022/06/30 11:24:57;;;;;;;1.42;0.93;;;27.10;94.70;;;;;;4940524;29;20050;-91
2022/06/30 11:27:25;;;;;;;0.30;0.30;;;27.20;94.40;;;;;;4940396;29;20028;-92
2022/06/30 11:30:17;;;;;;;1.40;1.35;;;27.20;93.70;;;;;;4940398;29;20035;-91
2022/06/30 11:32:43;;;;;;;1.00;0.98;;;27.20;95.30;;;;;;4937587;29;20035;-90
2022/06/30 11:35:08;;;;;;;0.68;0.68;;;27.20;93.60;;;;;;4957725;29;20028;-92
2022/06/30 11:37:34;;;;;;;0.70;0.68;;;27.30;93.50;;;;;;4940253;29;20094;-91
2022/06/30 11:40:02;;;;;;;0.55;0.55;;;27.20;93.30;;;;;;4940250;29;20031;-91
2022/06/30 11:42:27;;;;;;;2.40;1.15;;;27.30;94.90;;;;;;4957500;29;20026;-91
2022/06/30 11:44:53;;;;;;;0.88;0.88;;;27.40;93.20;;;;;;4957349;29;20031;-92
2022/06/30 11:47:22;;;;;;;1.30;0.93;;;27.60;92.70;;;;;;4939998;29;20370;-91
2022/06/30 11:49:52;;;;;;;0.70;0.70;;;27.90;92.90;;;;;;4940105;29;20034;-91
2022/06/30 11:52:23;;;;;;;1.55;1.45;;;28.30;90.80;;;;;;4940503;29;20024;-91
2022/06/30 11:54:52;;;;;;;3.33;1.25;;;28.80;90.50;;;;;;4941182;29;20109;-92
2022/06/30 11:57:20;;;;;;;1.02;1.02;;;29.00;90.00;;;;;;4940343;29;20020;-91
2022/06/30 11:59:47;;;;;;;1.02;0.80;;;29.90;90.30;;;;;;4957629;29;20027;-92
2022/06/30 12:02:14;;;;;;;1.08;0.77;;;30.40;81.20;;;;;;4957076;29;20026;-93
2022/06/30 12:04:41;;;;;;;0.22;0.22;;;31.10;82.50;;;;;;4956896;29;20029;-92
2022/06/30 12:07:15;;;;;;;2.05;1.42;;;31.20;77.20;;;;;;4956888;29;20043;-92
2022/06/30 12:09:44;;;;;;;1.40;1.20;;;31.10;77.30;;;;;;4939686;29;20063;-92
2022/06/30 12:12:13;;;;;;;0.28;0.28;;;31.60;76.70;;;;;;4942263;29;20047;-91
2022/06/30 12:14:40;;;;;;;2.50;1.45;;;32.20;73.80;;;;;;4966610;29;20062;-93
2022/06/30 12:17:08;;;;;;;0.00;0.00;;;33.10;75.40;;;;;;4939619;29;20051;-92
2022/06/30 12:19:34;;;;;;;0.90;0.75;;;34.10;69.20;;;;;;4955917;28;20020;-91
2022/06/30 12:22:03;;;;;;;2.05;0.55;;;34.30;69.30;;;;;;4939485;29;20035;-92
2022/06/30 12:24:28;;;;;;;0.70;0.70;;;34.80;67.70;;;;;;4939537;29;20055;-93
2022/06/30 12:26:56;;;;;;;1.05;0.70;;;34.20;65.80;;;;;;4956458;29;20050;-92
2022/06/30 12:29:24;;;;;;;0.55;0.55;;;34.10;65.20;;;;;;4956735;29;20035;-91
2022/06/30 12:32:10;;;;;;;0.68;0.65;;;34.60;69.50;;;;;;4956390;29;20027;-92
2022/06/30 12:34:56;;;;;;;0.38;0.38;;;35.00;67.00;;;;;;4939396;29;20111;-93
2022/06/30 12:37:27;;;;;;;1.33;0.88;;;35.80;62.40;;;;;;4939270;29;20049;-93
2022/06/30 12:39:56;;;;;;;0.43;0.43;;;35.70;61.80;;;;;;4956393;29;20099;-93
2022/06/30 12:42:22;;;;;;;0.40;0.40;;;36.00;63.80;;;;;;4939290;29;20099;-93
2022/06/30 12:44:47;;;;;;;0.30;0.30;;;35.80;62.80;;;;;;4939156;29;20039;-93
2022/06/30 12:47:14;;;;;;;0.88;0.73;;;35.90;63.20;;;;;;4956319;29;20166;-93
2022/06/30 12:49:41;;;;;;;0.57;0.57;;;36.70;61.70;;;;;;4939273;29;20038;-92
2022/06/30 12:52:15;;;;;;;1.55;1.45;;;36.60;59.80;;;;;;4956163;29;20035;-93
2022/06/30 12:55:09;;;;;;;0.50;0.50;;;36.40;59.60;;;;;;4956211;29;20027;-93
2022/06/30 12:57:36;;;;;;;1.85;0.65;;;35.70;59.00;;;;;;4939929;29;20521;-93
2022/06/30 13:00:03;;;;;;;0.85;0.68;;;36.10;60.10;;;;;;4956610;29;20038;-92
2022/06/30 13:02:37;;;;;;;0.70;0.70;;;36.40;59.30;;;;;;4941320;29;20030;-94
2022/06/30 13:05:04;;;;;;;0.28;0.28;;;36.90;59.10;;;;;;4956581;29;20078;-94
2022/06/30 13:07:29;;;;;;;0.40;0.40;;;36.90;57.70;;;;;;4939200;29;20023;-93